Time;durP1;ratioP1;P1;durP2;ratioP2;P2;SDS_P1;SDS_P2;PMS_P1;PMS_P2;Temp;Humidity;BMP_temperature;BMP_pressure;BME280_temperature;BME280_humidity;BME280_pressure;Samples;Min_cycle;Max_cycle;Signal;HPM_P1;HPM_P2
2023/11/24 00:01:58;;;;;;;12.00;6.53;;;;;;;-4.83;70.99;95464.66;5011924;28;20038;-61
2023/11/24 00:04:25;;;;;;;12.65;6.53;;;;;;;-4.81;69.40;95464.44;5011475;28;20423;-61
2023/11/24 00:06:51;;;;;;;9.60;5.65;;;;;;;-4.77;70.02;95456.97;5010791;28;20044;-62
2023/11/24 00:09:17;;;;;;;10.27;5.88;;;;;;;-4.70;69.85;95444.69;5011915;28;20049;-61
2023/11/24 00:11:43;;;;;;;10.30;6.03;;;;;;;-4.59;71.44;95446.38;5011732;28;20042;-61
2023/11/24 00:14:09;;;;;;;12.13;7.05;;;;;;;-4.52;70.38;95438.47;5011683;28;20567;-62
2023/11/24 00:16:38;;;;;;;11.07;6.75;;;;;;;-4.57;69.76;95434.78;5011654;28;20056;-62
2023/11/24 00:19:10;;;;;;;12.98;6.57;;;;;;;-4.56;69.58;95432.97;5011911;28;20046;-61
2023/11/24 00:21:37;;;;;;;11.18;6.43;;;;;;;-4.60;69.12;95430.09;5010407;28;20126;-62
2023/11/24 00:24:04;;;;;;;12.50;6.63;;;;;;;-4.66;69.96;95428.47;5009950;28;20578;-60
2023/11/24 00:26:31;;;;;;;14.00;6.85;;;;;;;-4.61;69.42;95422.59;5011853;28;20069;-59
2023/11/24 00:29:00;;;;;;;10.88;6.20;;;;;;;-4.60;68.59;95416.41;5011652;28;20393;-62
2023/11/24 00:31:26;;;;;;;12.98;6.85;;;;;;;-4.59;70.18;95415.38;5010049;28;20042;-61
2023/11/24 00:33:58;;;;;;;12.60;6.82;;;;;;;-4.53;69.80;95401.47;5011946;28;20042;-60
2023/11/24 00:36:24;;;;;;;11.02;6.30;;;;;;;-4.57;69.41;95400.41;5011024;28;20415;-59
2023/11/24 00:38:50;;;;;;;11.65;6.50;;;;;;;-4.61;69.45;95391.59;5010499;28;20069;-60
2023/11/24 00:41:17;;;;;;;11.55;6.07;;;;;;;-4.74;68.92;95386.75;4993853;28;20069;-61
2023/11/24 00:43:45;;;;;;;12.52;6.22;;;;;;;-4.72;69.90;95382.91;5026496;28;20411;-60
2023/11/24 00:46:11;;;;;;;11.70;6.68;;;;;;;-4.74;69.91;95384.16;5010169;28;20096;-60
2023/11/24 00:48:38;;;;;;;14.02;7.07;;;;;;;-4.66;70.52;95383.75;5010541;28;20062;-61
2023/11/24 00:51:04;;;;;;;12.00;6.90;;;;;;;-4.60;70.85;95381.00;5011387;28;20069;-61
2023/11/24 00:53:31;;;;;;;11.43;6.93;;;;;;;-4.58;69.43;95362.69;5011595;28;20089;-59
2023/11/24 00:55:58;;;;;;;14.73;6.85;;;;;;;-4.55;70.21;95364.78;5011500;28;20060;-61
2023/11/24 00:58:23;;;;;;;16.42;6.88;;;;;;;-4.51;69.70;95362.50;5031147;28;20033;-61
2023/11/24 01:00:49;;;;;;;12.25;7.10;;;;;;;-4.57;69.30;95359.84;5028354;28;20048;-61
2023/11/24 01:03:15;;;;;;;10.60;6.32;;;;;;;-4.56;69.68;95358.03;5011846;28;20042;-60
2023/11/24 01:05:41;;;;;;;12.45;6.47;;;;;;;-4.60;69.15;95349.97;5014585;28;20075;-61
2023/11/24 01:08:07;;;;;;;11.23;6.53;;;;;;;-4.71;69.09;95350.09;5031172;28;20079;-59
2023/11/24 01:10:33;;;;;;;12.88;6.68;;;;;;;-4.67;69.55;95346.03;5030975;28;20500;-62
2023/11/24 01:12:59;;;;;;;12.95;6.43;;;;;;;-4.67;68.88;95338.28;5029595;28;20495;-60
2023/11/24 01:15:25;;;;;;;12.15;7.40;;;;;;;-4.66;69.30;95338.03;5018057;28;20080;-60
2023/11/24 01:17:51;;;;;;;13.32;6.68;;;;;;;-4.69;69.42;95329.97;5015107;28;20042;-59
2023/11/24 01:20:17;;;;;;;13.48;6.60;;;;;;;-4.67;69.74;95328.72;5013596;28;20061;-60
2023/11/24 01:22:45;;;;;;;12.15;6.95;;;;;;;-4.57;69.57;95318.50;5015061;28;20120;-59
2023/11/24 01:25:11;;;;;;;14.35;7.32;;;;;;;-4.51;70.07;95309.00;5014675;28;20050;-60
2023/11/24 01:27:37;;;;;;;15.48;6.43;;;;;;;-4.44;69.70;95311.38;5014833;28;20045;-60
2023/11/24 01:30:04;;;;;;;11.38;6.75;;;;;;;-4.48;68.91;95307.72;5013045;28;20046;-60
2023/11/24 01:32:30;;;;;;;11.25;6.80;;;;;;;-4.49;68.79;95296.63;5013059;28;20053;-60
2023/11/24 01:34:56;;;;;;;10.23;6.68;;;;;;;-4.59;68.97;95294.72;5013410;28;20054;-61
2023/11/24 01:37:22;;;;;;;13.30;7.10;;;;;;;-4.51;70.54;95283.16;5014532;28;20046;-60
2023/11/24 01:39:49;;;;;;;12.35;6.95;;;;;;;-4.49;69.09;95268.19;5013264;28;20427;-60
2023/11/24 01:42:15;;;;;;;18.35;7.32;;;;;;;-4.44;69.11;95262.28;5013029;28;20507;-59
2023/11/24 01:44:42;;;;;;;13.43;7.43;;;;;;;-4.47;69.11;95263.56;5012587;28;20094;-60
2023/11/24 01:47:08;;;;;;;13.98;7.53;;;;;;;-4.48;68.78;95254.22;5028664;28;20504;-60
2023/11/24 01:49:34;;;;;;;14.60;8.20;;;;;;;-4.45;68.98;95256.31;5013148;28;20052;-60
2023/11/24 01:51:59;;;;;;;14.27;8.00;;;;;;;-4.48;69.05;95246.47;5012870;28;20535;-60
2023/11/24 01:54:26;;;;;;;12.77;8.35;;;;;;;-4.45;68.50;95243.41;4996494;28;20084;-60
2023/11/24 01:56:57;;;;;;;12.73;7.45;;;;;;;-4.52;69.19;95250.59;5013744;28;20037;-60
2023/11/24 01:59:23;;;;;;;11.65;7.03;;;;;;;-4.48;69.32;95251.66;5009473;28;20100;-61
2023/11/24 02:01:49;;;;;;;13.05;7.80;;;;;;;-4.49;68.69;95238.97;4993532;28;20459;-60
2023/11/24 02:04:15;;;;;;;12.18;7.50;;;;;;;-4.50;69.60;95243.38;5028246;28;20473;-60
2023/11/24 02:06:44;;;;;;;14.55;7.93;;;;;;;-4.50;68.89;95234.81;5014164;28;20503;-60
2023/11/24 02:09:10;;;;;;;13.52;7.20;;;;;;;-4.49;69.05;95226.06;5029378;28;20052;-60
2023/11/24 02:11:36;;;;;;;18.20;8.32;;;;;;;-4.42;69.10;95217.06;5014017;28;20128;-59
2023/11/24 02:14:01;;;;;;;16.17;8.02;;;;;;;-4.43;69.20;95218.09;5029325;28;20099;-61
2023/11/24 02:16:27;;;;;;;13.50;8.32;;;;;;;-4.47;68.27;95204.13;5012515;28;20038;-61
2023/11/24 02:18:53;;;;;;;15.63;9.40;;;;;;;-4.39;68.40;95211.41;5012687;28;20107;-60
2023/11/24 02:21:19;;;;;;;15.15;8.40;;;;;;;-4.40;68.56;95209.84;5012430;28;20508;-61
2023/11/24 02:23:45;;;;;;;13.65;9.00;;;;;;;-4.39;68.75;95211.41;5012590;28;20077;-61
2023/11/24 02:26:10;;;;;;;14.25;8.65;;;;;;;-4.41;68.45;95204.91;5011729;28;20056;-62
2023/11/24 02:28:37;;;;;;;16.38;9.07;;;;;;;-4.43;68.79;95205.19;5012352;28;20073;-61
2023/11/24 02:31:03;;;;;;;14.48;8.07;;;;;;;-4.51;69.33;95205.59;5013524;28;20069;-61
2023/11/24 02:33:33;;;;;;;20.60;9.38;;;;;;;-4.54;68.54;95200.16;5013661;28;20042;-60
2023/11/24 02:36:05;;;;;;;14.75;9.07;;;;;;;-4.53;68.57;95197.31;5012576;28;20042;-60
2023/11/24 02:38:34;;;;;;;17.00;8.73;;;;;;;-4.49;68.59;95188.06;5012195;28;20130;-60
2023/11/24 02:41:00;;;;;;;16.15;9.18;;;;;;;-4.54;69.48;95182.84;4996159;28;20064;-60
2023/11/24 02:43:27;;;;;;;16.20;7.93;;;;;;;-4.61;69.23;95184.84;5012136;28;20530;-59
2023/11/24 02:45:52;;;;;;;16.25;10.10;;;;;;;-4.67;69.00;95175.50;5013145;28;20049;-59
2023/11/24 02:48:18;;;;;;;19.55;9.82;;;;;;;-4.63;70.12;95181.72;5011997;28;20054;-60
2023/11/24 02:50:44;;;;;;;17.08;9.35;;;;;;;-4.58;70.35;95174.81;5011959;28;20586;-61
2023/11/24 02:53:10;;;;;;;17.35;9.77;;;;;;;-4.58;70.44;95161.88;5027020;28;20121;-60
2023/11/24 02:55:35;;;;;;;12.57;8.10;;;;;;;-4.51;70.57;95174.59;5011982;28;20048;-61
2023/11/24 02:58:04;;;;;;;21.38;9.35;;;;;;;-4.47;70.07;95180.06;5011276;28;20092;-60
2023/11/24 03:00:30;;;;;;;18.88;9.98;;;;;;;-4.43;69.70;95176.75;5012371;28;20046;-61
2023/11/24 03:02:55;;;;;;;14.68;8.05;;;;;;;-4.47;69.54;95167.94;5012258;28;20095;-60
2023/11/24 03:05:21;;;;;;;17.85;8.80;;;;;;;-4.42;70.35;95173.13;5006298;28;20520;-61
2023/11/24 03:07:47;;;;;;;16.27;8.95;;;;;;;-4.37;69.80;95173.19;4998605;28;20188;-59
2023/11/24 03:10:14;;;;;;;15.27;9.05;;;;;;;-4.32;70.03;95167.28;5011857;28;20129;-60
2023/11/24 03:12:39;;;;;;;17.63;9.70;;;;;;;-4.38;69.00;95163.88;5011500;28;20049;-60
2023/11/24 03:15:09;;;;;;;20.25;9.95;;;;;;;-4.43;69.84;95155.28;5011891;28;20042;-61
2023/11/24 03:17:36;;;;;;;18.38;9.57;;;;;;;-4.37;70.47;95160.25;5012779;28;20045;-60
2023/11/24 03:20:01;;;;;;;17.48;9.32;;;;;;;-4.35;70.07;95149.69;5011398;28;20389;-60
2023/11/24 03:22:29;;;;;;;17.27;9.90;;;;;;;-4.28;69.91;95144.28;5011464;28;20125;-60
2023/11/24 03:24:54;;;;;;;17.45;10.18;;;;;;;-4.39;69.51;95135.66;5011228;28;20064;-61
2023/11/24 03:27:20;;;;;;;18.60;10.00;;;;;;;-4.51;70.37;95127.31;5012666;28;20046;-60
2023/11/24 03:29:48;;;;;;;19.15;11.05;;;;;;;-4.46;70.03;95122.97;5011790;28;20053;-61
2023/11/24 03:32:13;;;;;;;20.85;11.50;;;;;;;-4.46;70.21;95130.72;5012108;28;20034;-61
2023/11/24 03:34:40;;;;;;;21.88;11.25;;;;;;;-4.47;70.78;95134.34;4994924;28;20042;-61
2023/11/24 03:37:05;;;;;;;22.42;12.63;;;;;;;-4.44;70.79;95133.84;5012026;28;20046;-60
2023/11/24 03:39:31;;;;;;;25.95;12.38;;;;;;;-4.50;69.99;95127.06;5027004;28;20061;-61
2023/11/24 03:41:57;;;;;;;25.88;14.27;;;;;;;-4.51;70.17;95116.97;5012292;28;20041;-59
2023/11/24 03:44:23;;;;;;;28.27;14.85;;;;;;;-4.48;71.06;95119.84;5011882;28;20049;-60
2023/11/24 03:46:49;;;;;;;27.42;15.05;;;;;;;-4.41;70.75;95109.28;5011816;28;20061;-59
2023/11/24 03:49:15;;;;;;;27.33;14.27;;;;;;;-4.35;71.70;95103.91;5011994;28;20164;-59
2023/11/24 03:51:41;;;;;;;31.75;14.50;;;;;;;-4.36;70.85;95101.56;5010745;28;20042;-60
2023/11/24 03:54:07;;;;;;;26.27;13.98;;;;;;;-4.34;70.97;95109.88;5010688;28;20065;-61
2023/11/24 03:56:33;;;;;;;23.60;13.10;;;;;;;-4.30;70.26;95113.50;5011886;28;20030;-62
2023/11/24 03:58:59;;;;;;;24.58;13.27;;;;;;;-4.31;70.86;95111.94;5011659;28;20037;-60
2023/11/24 04:01:27;;;;;;;24.83;12.73;;;;;;;-4.37;70.71;95115.53;5012080;28;20439;-62
2023/11/24 04:03:54;;;;;;;23.55;12.40;;;;;;;-4.47;69.82;95112.84;5011412;28;20041;-59
2023/11/24 04:06:20;;;;;;;24.00;13.18;;;;;;;-4.51;70.62;95114.38;5011373;28;20050;-60
2023/11/24 04:08:45;;;;;;;22.88;12.73;;;;;;;-4.42;71.30;95116.25;4993703;28;20550;-61
2023/11/24 04:11:12;;;;;;;30.17;14.15;;;;;;;-4.40;70.99;95116.03;5011648;28;20136;-61
2023/11/24 04:13:38;;;;;;;22.42;13.48;;;;;;;-4.36;70.56;95115.25;5012056;28;20125;-59
2023/11/24 04:16:06;;;;;;;32.13;13.63;;;;;;;-4.26;70.20;95122.34;4993533;28;20511;-62
2023/11/24 04:18:32;;;;;;;25.70;14.48;;;;;;;-4.26;70.60;95119.75;5012146;28;20037;-59
2023/11/24 04:20:58;;;;;;;24.23;12.70;;;;;;;-4.23;70.17;95121.84;5011877;28;20125;-59
2023/11/24 04:23:25;;;;;;;30.13;13.88;;;;;;;-4.19;70.25;95120.31;5010446;28;20083;-60
2023/11/24 04:25:50;;;;;;;26.13;13.55;;;;;;;-4.22;70.34;95110.47;5010915;28;20042;-60
2023/11/24 04:28:19;;;;;;;24.98;13.38;;;;;;;-4.27;69.79;95097.50;5007892;28;20049;-59
2023/11/24 04:30:45;;;;;;;28.02;14.75;;;;;;;-4.29;70.47;95094.41;5009280;28;20137;-60
2023/11/24 04:33:11;;;;;;;25.77;13.13;;;;;;;-4.39;69.74;95096.91;5024536;28;20136;-59
2023/11/24 04:35:37;;;;;;;31.17;16.00;;;;;;;-4.51;70.90;95091.91;5006190;28;20092;-60
2023/11/24 04:38:02;;;;;;;31.30;15.60;;;;;;;-4.54;71.12;95091.63;5008709;28;20092;-60
2023/11/24 04:40:28;;;;;;;27.25;15.02;;;;;;;-4.60;70.67;95076.06;5009470;28;20120;-61
2023/11/24 04:42:55;;;;;;;31.58;15.65;;;;;;;-4.59;71.28;95069.88;5009297;28;20125;-60
2023/11/24 04:45:20;;;;;;;30.33;15.57;;;;;;;-4.54;71.26;95071.72;5011487;28;20100;-60
2023/11/24 04:47:46;;;;;;;31.05;15.32;;;;;;;-4.58;70.73;95068.84;5011324;28;20077;-60
2023/11/24 04:50:12;;;;;;;33.45;15.10;;;;;;;-4.60;71.64;95062.38;5012904;28;20056;-62
2023/11/24 04:52:38;;;;;;;28.58;14.75;;;;;;;-4.59;71.67;95054.38;5015624;28;20491;-61
2023/11/24 04:55:04;;;;;;;28.88;15.10;;;;;;;-4.55;71.46;95053.88;5014116;28;20523;-61
2023/11/24 04:57:31;;;;;;;27.20;14.93;;;;;;;-4.50;71.23;95049.53;5013889;28;20053;-58
2023/11/24 04:59:57;;;;;;;34.83;16.70;;;;;;;-4.61;70.90;95058.25;5015384;28;20632;-60
2023/11/24 05:02:23;;;;;;;36.03;16.52;;;;;;;-4.80;71.97;95053.44;5013727;28;20132;-59
2023/11/24 05:04:49;;;;;;;32.03;16.13;;;;;;;-4.92;72.50;95055.41;5014052;28;20065;-59
2023/11/24 05:07:18;;;;;;;30.73;15.55;;;;;;;-4.97;73.37;95050.22;5013691;28;20488;-61
2023/11/24 05:09:44;;;;;;;31.90;15.93;;;;;;;-4.92;73.40;95049.47;5029962;28;20065;-60
2023/11/24 05:12:10;;;;;;;35.60;15.15;;;;;;;-4.98;72.20;95053.03;5013536;28;20050;-60
2023/11/24 05:14:36;;;;;;;32.83;15.45;;;;;;;-4.99;72.71;95052.25;5013658;28;20072;-61
2023/11/24 05:17:01;;;;;;;24.85;13.15;;;;;;;-5.06;72.94;95044.72;5014652;28;20049;-60
2023/11/24 05:19:27;;;;;;;27.13;14.82;;;;;;;-4.91;72.73;95049.22;5014364;28;20061;-61
2023/11/24 05:21:53;;;;;;;22.90;12.98;;;;;;;-4.86;72.05;95054.41;5014482;28;20041;-60
2023/11/24 05:24:19;;;;;;;24.05;12.70;;;;;;;-4.87;72.37;95049.50;5014500;28;20038;-60
2023/11/24 05:26:45;;;;;;;22.95;11.18;;;;;;;-4.87;72.75;95055.44;5013723;28;20415;-61
2023/11/24 05:29:10;;;;;;;20.83;11.93;;;;;;;-4.90;72.77;95055.94;5014898;28;20045;-60
2023/11/24 05:31:36;;;;;;;30.05;11.15;;;;;;;-5.01;73.32;95046.53;5014701;28;20038;-60
2023/11/24 05:34:03;;;;;;;24.25;12.93;;;;;;;-4.95;73.52;95042.19;5014726;28;20042;-60
2023/11/24 05:36:29;;;;;;;23.90;12.57;;;;;;;-4.92;73.41;95041.72;5013978;28;20354;-61
2023/11/24 05:38:55;;;;;;;23.63;12.45;;;;;;;-5.01;73.36;95041.38;4996589;28;20049;-60
2023/11/24 05:41:21;;;;;;;22.80;12.93;;;;;;;-5.03;73.64;95043.41;5013511;28;20049;-61
2023/11/24 05:43:48;;;;;;;26.27;11.55;;;;;;;-5.00;74.21;95034.41;5014737;28;20046;-61
2023/11/24 05:46:13;;;;;;;21.58;11.63;;;;;;;-4.95;73.41;95040.41;5012915;28;20041;-61
2023/11/24 05:48:39;;;;;;;20.63;10.68;;;;;;;-4.94;73.21;95048.91;5014650;28;20085;-61
2023/11/24 05:51:05;;;;;;;21.55;11.40;;;;;;;-5.09;73.43;95044.41;5014316;28;20050;-61
2023/11/24 05:53:31;;;;;;;27.73;12.00;;;;;;;-5.15;73.99;95042.78;5014053;28;20069;-61
2023/11/24 05:55:57;;;;;;;25.60;12.10;;;;;;;-5.24;73.93;95047.63;5013095;28;20049;-61
2023/11/24 05:58:23;;;;;;;25.00;12.60;;;;;;;-5.27;74.25;95046.31;5014280;28;20092;-60
2023/11/24 06:00:49;;;;;;;31.20;13.35;;;;;;;-5.19;74.31;95031.41;5013391;28;20050;-61
2023/11/24 06:03:15;;;;;;;21.63;11.82;;;;;;;-5.22;74.11;95031.91;5013878;28;20116;-60
2023/11/24 06:05:42;;;;;;;28.48;13.68;;;;;;;-5.25;74.23;95028.78;5014195;28;20054;-60
2023/11/24 06:08:07;;;;;;;29.17;13.00;;;;;;;-5.31;74.33;95023.81;5014003;28;20526;-59
2023/11/24 06:10:33;;;;;;;25.98;12.70;;;;;;;-5.37;74.68;95028.16;5013034;28;20038;-61
2023/11/24 06:12:59;;;;;;;26.05;12.90;;;;;;;-5.33;74.87;95024.03;5013842;28;20049;-61
2023/11/24 06:15:26;;;;;;;31.05;12.88;;;;;;;-5.24;74.57;95026.97;5014295;28;20046;-61
2023/11/24 06:17:51;;;;;;;21.95;11.93;;;;;;;-5.30;74.05;95023.56;5012904;28;20077;-61
2023/11/24 06:20:17;;;;;;;30.08;13.38;;;;;;;-5.34;74.76;95022.50;5012455;28;20112;-62
2023/11/24 06:22:44;;;;;;;26.05;13.93;;;;;;;-5.31;75.14;95016.84;5010192;28;20042;-61
2023/11/24 06:25:13;;;;;;;30.20;13.93;;;;;;;-5.23;74.75;95015.63;5012223;28;20042;-60
2023/11/24 06:27:39;;;;;;;34.15;14.95;;;;;;;-5.21;74.39;95012.78;5012384;28;20495;-59
2023/11/24 06:30:06;;;;;;;30.05;14.52;;;;;;;-5.23;74.63;95004.53;5012328;28;20120;-57
2023/11/24 06:32:33;;;;;;;30.75;14.80;;;;;;;-5.21;74.13;95010.22;5013476;28;20046;-58
2023/11/24 06:35:11;;;;;;;25.95;13.05;;;;;;;-5.27;74.73;95005.00;5012241;28;20045;-58
2023/11/24 06:37:40;;;;;;;32.50;15.38;;;;;;;-5.29;74.73;95004.50;4980042;28;20046;-58
2023/11/24 06:40:07;;;;;;;30.33;14.10;;;;;;;-5.31;74.17;95006.53;5013238;28;20100;-58
2023/11/24 06:42:32;;;;;;;28.95;12.80;;;;;;;-5.35;74.47;95005.47;5013503;28;20041;-60
2023/11/24 06:44:58;;;;;;;29.90;14.40;;;;;;;-5.35;73.64;95009.84;5013378;28;20056;-57
2023/11/24 06:47:24;;;;;;;28.98;14.10;;;;;;;-5.41;74.39;95008.22;5013136;28;20057;-57
2023/11/24 06:49:50;;;;;;;28.33;14.02;;;;;;;-5.39;74.75;95009.53;5013441;28;20408;-59
2023/11/24 06:52:17;;;;;;;24.20;12.60;;;;;;;-5.37;73.87;95007.50;5011830;28;20084;-58
2023/11/24 06:54:43;;;;;;;31.70;15.27;;;;;;;-5.28;74.20;95008.63;4995379;28;20042;-58
2023/11/24 06:57:09;;;;;;;26.52;14.52;;;;;;;-5.23;73.96;95013.06;5012737;28;20247;-60
2023/11/24 06:59:34;;;;;;;35.60;16.05;;;;;;;-5.20;73.56;95010.00;5013016;28;20427;-63
2023/11/24 07:02:00;;;;;;;29.27;14.40;;;;;;;-5.29;73.57;95007.06;5012342;28;20050;-61
2023/11/24 07:04:27;;;;;;;34.25;15.48;;;;;;;-5.28;74.28;95011.19;5012610;28;20396;-61
2023/11/24 07:07:06;;;;;;;27.60;12.77;;;;;;;-5.33;74.06;95011.13;4978265;28;20046;-59
2023/11/24 07:09:32;;;;;;;34.97;15.45;;;;;;;-5.41;73.47;95003.88;5009504;28;20042;-63
2023/11/24 07:11:57;;;;;;;31.55;15.38;;;;;;;-5.38;74.45;95000.78;5011207;28;20064;-62
2023/11/24 07:14:23;;;;;;;36.60;15.30;;;;;;;-5.41;73.90;94996.13;5011698;28;20085;-63
2023/11/24 07:16:49;;;;;;;46.20;18.25;;;;;;;-5.43;74.32;94997.38;5011725;28;20423;-62
2023/11/24 07:19:17;;;;;;;33.13;14.52;;;;;;;-5.46;73.70;94996.06;5011527;28;20502;-63
2023/11/24 07:21:44;;;;;;;35.53;16.63;;;;;;;-5.33;74.03;94993.06;5011208;28;20404;-61
2023/11/24 07:24:09;;;;;;;46.67;18.45;;;;;;;-5.21;73.94;94995.50;5010608;28;20565;-63
2023/11/24 07:26:35;;;;;;;37.78;15.30;;;;;;;-5.16;73.09;94992.19;5011932;28;20037;-61
2023/11/24 07:29:02;;;;;;;34.45;15.15;;;;;;;-5.13;72.63;94989.91;5012082;28;20092;-62
2023/11/24 07:31:28;;;;;;;26.70;13.43;;;;;;;-5.09;72.91;94995.34;5010106;28;20042;-61
2023/11/24 07:33:54;;;;;;;30.23;15.25;;;;;;;-4.97;72.03;94997.75;5012085;28;20052;-62
2023/11/24 07:36:20;;;;;;;29.25;16.02;;;;;;;-4.84;72.60;94997.34;5012596;28;20576;-63
2023/11/24 07:38:46;;;;;;;32.00;14.75;;;;;;;-4.80;72.05;94996.59;5011753;28;20124;-63
2023/11/24 07:41:11;;;;;;;34.00;15.52;;;;;;;-4.78;71.67;94993.78;5010774;28;20050;-61
2023/11/24 07:43:37;;;;;;;29.30;13.43;;;;;;;-4.74;71.27;95001.81;5011274;28;20392;-61
2023/11/24 07:46:10;;;;;;;21.88;11.60;;;;;;;-4.87;71.38;95010.75;5012299;28;20052;-63
2023/11/24 07:48:37;;;;;;;26.48;12.68;;;;;;;-5.02;71.60;95003.69;5010953;28;20050;-58
2023/11/24 07:51:05;;;;;;;32.55;14.63;;;;;;;-5.04;72.19;95003.91;5011911;28;20045;-61
2023/11/24 07:53:32;;;;;;;30.17;14.60;;;;;;;-4.96;72.16;95004.50;5010818;28;20053;-61
2023/11/24 07:55:59;;;;;;;36.30;15.55;;;;;;;-4.94;71.48;94995.47;5012606;28;20038;-62
2023/11/24 07:58:24;;;;;;;29.05;14.45;;;;;;;-4.91;72.19;95000.16;5013016;28;20038;-61
2023/11/24 08:00:50;;;;;;;30.25;14.43;;;;;;;-4.92;71.71;95008.91;5011958;28;20053;-61
2023/11/24 08:03:18;;;;;;;35.67;15.07;;;;;;;-4.94;71.02;95005.81;5009506;28;20466;-60
2023/11/24 08:05:44;;;;;;;30.10;14.18;;;;;;;-4.93;71.88;95009.16;5010618;28;20478;-61
2023/11/24 08:08:10;;;;;;;29.63;15.05;;;;;;;-4.96;71.36;95010.44;5009202;28;20184;-59
2023/11/24 08:10:36;;;;;;;28.92;13.45;;;;;;;-5.06;71.88;95008.56;5025615;28;20045;-61
2023/11/24 08:13:02;;;;;;;27.52;14.43;;;;;;;-5.09;71.89;95019.38;5011590;28;20073;-60
2023/11/24 08:15:28;;;;;;;35.17;16.55;;;;;;;-5.08;72.06;95007.25;5013006;28;20073;-60
2023/11/24 08:17:53;;;;;;;35.97;15.55;;;;;;;-4.96;71.44;95009.66;5011038;28;20046;-60
2023/11/24 08:20:20;;;;;;;24.85;11.80;;;;;;;-5.00;71.08;95003.41;5012026;28;20077;-62
2023/11/24 08:22:47;;;;;;;25.77;12.98;;;;;;;-5.17;71.73;95000.97;5011589;28;20042;-62
2023/11/24 08:25:13;;;;;;;30.48;14.10;;;;;;;-5.12;71.68;94999.19;5011048;28;20137;-61
2023/11/24 08:27:39;;;;;;;32.65;12.82;;;;;;;-5.11;71.73;94994.81;5011595;28;20130;-60
2023/11/24 08:30:10;;;;;;;32.33;15.43;;;;;;;-5.07;71.80;94990.72;5010087;28;20446;-61
2023/11/24 08:32:38;;;;;;;30.70;14.02;;;;;;;-5.10;71.77;94986.81;5024925;28;20116;-61
2023/11/24 08:35:05;;;;;;;27.42;13.82;;;;;;;-5.13;71.80;94984.72;5009469;28;20069;-61
2023/11/24 08:37:30;;;;;;;24.42;11.70;;;;;;;-5.04;71.96;94983.25;5008817;28;20042;-61
2023/11/24 08:39:56;;;;;;;27.27;12.73;;;;;;;-5.01;71.09;94971.66;5011256;28;20466;-61
2023/11/24 08:42:23;;;;;;;32.28;15.70;;;;;;;-4.92;71.63;94977.16;5011206;28;20077;-60
2023/11/24 08:44:48;;;;;;;35.65;14.57;;;;;;;-4.82;71.38;94979.81;5009323;28;20522;-60
2023/11/24 08:47:14;;;;;;;32.00;14.77;;;;;;;-4.75;71.12;94979.59;5009857;28;20058;-61
2023/11/24 08:49:40;;;;;;;32.72;15.02;;;;;;;-4.62;70.80;94979.94;5010685;28;20503;-61
2023/11/24 08:52:05;;;;;;;34.38;16.42;;;;;;;-4.57;69.63;94986.94;5011490;28;20056;-59
2023/11/24 08:54:31;;;;;;;25.73;12.52;;;;;;;-4.63;70.57;94978.38;5011844;28;20496;-62
2023/11/24 08:56:57;;;;;;;34.13;16.10;;;;;;;-4.59;69.97;94973.47;5011508;28;20041;-60
2023/11/24 08:59:23;;;;;;;33.55;14.73;;;;;;;-4.58;69.99;94975.81;5006595;28;20054;-62
2023/11/24 09:01:49;;;;;;;27.80;14.50;;;;;;;-4.69;70.06;94971.63;4991626;28;20465;-60
2023/11/24 09:04:15;;;;;;;26.35;12.43;;;;;;;-4.68;70.40;94972.38;4991696;28;20515;-61
2023/11/24 09:06:41;;;;;;;31.98;15.32;;;;;;;-4.67;70.07;94974.75;4991674;28;20046;-61
2023/11/24 09:09:07;;;;;;;33.88;14.60;;;;;;;-4.60;69.90;94967.53;5006768;28;20043;-61
2023/11/24 09:11:34;;;;;;;34.60;14.18;;;;;;;-4.53;69.76;94964.72;4990412;28;20543;-61
2023/11/24 09:14:05;;;;;;;35.00;15.20;;;;;;;-4.36;69.90;94969.72;4991720;28;20467;-62
2023/11/24 09:16:32;;;;;;;32.22;15.57;;;;;;;-4.29;69.57;94972.09;4991658;28;20077;-61
2023/11/24 09:19:00;;;;;;;29.30;14.60;;;;;;;-4.31;68.35;94966.41;4991773;28;20046;-61
2023/11/24 09:21:27;;;;;;;32.58;14.52;;;;;;;-4.25;69.36;94973.16;5006717;28;20046;-61
2023/11/24 09:23:53;;;;;;;29.60;13.52;;;;;;;-4.15;68.47;94968.00;4991841;28;20386;-61
2023/11/24 09:26:18;;;;;;;26.17;13.90;;;;;;;-4.11;68.50;94979.44;4990735;28;20086;-62
2023/11/24 09:28:44;;;;;;;25.15;13.43;;;;;;;-4.17;68.71;94978.63;4991766;28;20042;-59
2023/11/24 09:31:12;;;;;;;27.40;13.52;;;;;;;-4.12;68.75;94976.06;4991763;28;20038;-62
2023/11/24 09:33:38;;;;;;;26.83;12.73;;;;;;;-4.09;68.32;94972.16;4991877;28;20081;-60
2023/11/24 09:36:06;;;;;;;26.20;13.10;;;;;;;-4.21;68.50;94974.97;4991154;28;20046;-59
2023/11/24 09:38:33;;;;;;;25.38;12.35;;;;;;;-4.32;68.74;94983.72;5026826;28;20052;-60
2023/11/24 09:41:11;;;;;;;26.80;12.93;;;;;;;-4.37;69.47;94981.88;5014730;28;20072;-61
2023/11/24 09:43:37;;;;;;;28.98;14.57;;;;;;;-4.34;69.46;94985.78;5028662;28;20038;-58
2023/11/24 09:46:07;;;;;;;26.02;13.27;;;;;;;-4.34;69.37;94993.53;5012592;28;20119;-59
2023/11/24 09:48:33;;;;;;;28.60;13.98;;;;;;;-4.24;69.81;94990.22;5008763;28;20438;-60
2023/11/24 09:51:05;;;;;;;30.50;13.93;;;;;;;-4.19;70.01;94995.41;5006782;28;20046;-61
2023/11/24 09:53:35;;;;;;;27.60;14.20;;;;;;;-4.29;69.63;94995.34;4995209;28;20038;-61
2023/11/24 09:56:02;;;;;;;32.10;15.00;;;;;;;-4.28;70.40;94994.34;4977606;28;20133;-61
2023/11/24 09:58:32;;;;;;;29.08;13.73;;;;;;;-4.30;70.05;94991.22;5002514;28;20048;-60
2023/11/24 10:01:06;;;;;;;36.58;15.85;;;;;;;-4.34;70.50;94994.31;5016721;28;20080;-62
2023/11/24 10:03:38;;;;;;;28.73;14.32;;;;;;;-4.32;70.51;94994.06;5015558;28;20123;-60
2023/11/24 10:06:05;;;;;;;28.55;14.75;;;;;;;-4.32;70.24;94990.69;5015954;28;20072;-60
2023/11/24 10:08:31;;;;;;;31.35;14.85;;;;;;;-4.31;69.56;94994.84;5015349;28;20077;-57
2023/11/24 10:11:27;;;;;;;28.65;14.55;;;;;;;-4.36;69.84;94995.59;5015626;28;20073;-62
2023/11/24 10:13:57;;;;;;;28.08;14.40;;;;;;;-4.40;70.38;95010.81;5014754;28;20420;-59
2023/11/24 10:16:22;;;;;;;26.30;12.35;;;;;;;-4.48;70.11;95003.53;5030349;28;20057;-56
2023/11/24 10:18:51;;;;;;;28.20;14.02;;;;;;;-4.44;70.93;95006.38;5014004;28;20038;-60
2023/11/24 10:21:17;;;;;;;30.40;14.65;;;;;;;-4.39;70.59;95002.03;5013823;28;20395;-61
2023/11/24 10:23:43;;;;;;;27.08;12.82;;;;;;;-4.37;70.73;95006.97;5011590;28;20208;-59
2023/11/24 10:26:13;;;;;;;29.42;14.00;;;;;;;-4.31;70.06;95012.94;4998795;28;20534;-62
2023/11/24 10:28:40;;;;;;;22.50;12.32;;;;;;;-4.42;70.59;95012.88;5013643;28;20372;-60
2023/11/24 10:31:07;;;;;;;21.60;11.38;;;;;;;-4.36;70.63;95021.44;5011684;28;20132;-61
2023/11/24 10:33:36;;;;;;;24.33;11.90;;;;;;;-4.36;69.82;95019.63;5028052;28;20049;-59
2023/11/24 10:36:04;;;;;;;26.38;14.50;;;;;;;-4.48;70.53;95021.63;5011994;28;20200;-59
2023/11/24 10:38:31;;;;;;;29.75;14.45;;;;;;;-4.40;70.77;95015.22;4995928;28;20095;-60
2023/11/24 10:40:59;;;;;;;29.95;15.07;;;;;;;-4.40;70.81;95018.56;5012196;28;20121;-60
2023/11/24 10:43:31;;;;;;;25.67;13.43;;;;;;;-4.40;70.61;95023.75;5013429;28;20510;-60
2023/11/24 10:46:01;;;;;;;30.45;14.25;;;;;;;-4.38;69.88;95028.69;5013268;28;20049;-61
2023/11/24 10:48:34;;;;;;;27.30;13.57;;;;;;;-4.50;70.62;95028.06;5012654;28;20093;-60
2023/11/24 10:51:12;;;;;;;34.92;14.50;;;;;;;-4.44;70.45;95033.03;5013331;28;20042;-60
2023/11/24 10:53:49;;;;;;;26.48;14.27;;;;;;;-4.55;70.76;95028.81;5011747;28;20050;-62
2023/11/24 10:56:20;;;;;;;25.00;13.50;;;;;;;-4.48;71.11;95036.34;5011607;28;20041;-59
2023/11/24 10:58:52;;;;;;;24.52;11.07;;;;;;;-4.51;70.06;95029.88;5010983;28;20041;-60
2023/11/24 11:01:22;;;;;;;31.73;14.07;;;;;;;-4.66;70.82;95045.28;5013357;28;20052;-59
2023/11/24 11:03:58;;;;;;;22.33;12.15;;;;;;;-4.67;70.67;95052.25;5008873;28;20069;-61
2023/11/24 11:06:43;;;;;;;22.02;11.95;;;;;;;-4.64;71.06;95051.75;5011676;28;20519;-61
2023/11/24 11:09:23;;;;;;;25.42;13.05;;;;;;;-4.61;71.11;95043.50;5011769;28;20061;-61
2023/11/24 11:12:13;;;;;;;22.55;11.70;;;;;;;-4.61;71.20;95045.31;5011654;28;20049;-61
2023/11/24 11:14:40;;;;;;;24.23;10.93;;;;;;;-4.61;71.12;95042.75;5013289;28;20059;-61
2023/11/24 11:17:18;;;;;;;23.15;12.05;;;;;;;-4.51;71.09;95049.78;4996763;28;20071;-61
2023/11/24 11:20:14;;;;;;;27.27;13.52;;;;;;;-4.53;71.28;95052.59;5012614;28;20040;-59